Time;durP1;ratioP1;P1;durP2;ratioP2;P2;SDS_P1;SDS_P2;PMS_P1;PMS_P2;Temp;Humidity;BMP_temperature;BMP_pressure;BME280_temperature;BME280_humidity;BME280_pressure;Samples;Min_cycle;Max_cycle;Signal;HPM_P1;HPM_P2
2023/03/11 00:00:25;;;;;;;;;9.50;7.50;;;;;;;;5065340;28;61911;-85
2023/03/11 00:02:52;;;;;;;;;8.00;7.00;;;;;;;;5065962;28;61984;-85
2023/03/11 00:05:20;;;;;;;;;15.00;11.00;;;;;;;;5082767;27;62877;-85
2023/03/11 00:07:45;;;;;;;;;8.75;6.50;;;;;;;;5084117;28;61813;-85
2023/03/11 00:10:27;;;;;;;;;9.75;8.75;;;;;;;;5065677;28;61889;-85
2023/03/11 00:12:52;;;;;;;;;14.75;8.00;;;;;;;;5065739;28;61829;-85
2023/03/11 00:15:18;;;;;;;;;5.25;3.75;;;;;;;;5064907;28;64961;-85
2023/03/11 00:17:43;;;;;;;;;8.25;8.00;;;;;;;;5083671;27;62124;-85
2023/03/11 00:20:15;;;;;;;;;17.50;9.75;;;;;;;;5065299;28;61902;-85
2023/03/11 00:22:40;;;;;;;;;10.00;8.00;;;;;;;;5083674;27;61933;-85
2023/03/11 00:25:06;;;;;;;;;7.50;7.25;;;;;;;;5064751;28;63657;-85
2023/03/11 00:27:31;;;;;;;;;8.50;7.00;;;;;;;;5065314;28;61954;-85
2023/03/11 00:29:56;;;;;;;;;7.00;5.25;;;;;;;;5083595;28;61732;-85
2023/03/11 00:32:21;;;;;;;;;1.75;1.75;;;;;;;;5065015;28;61958;-85
2023/03/11 00:34:47;;;;;;;;;3.00;3.00;;;;;;;;5082794;27;63173;-85
2023/03/11 00:37:12;;;;;;;;;3.50;2.50;;;;;;;;5083400;28;62015;-85
2023/03/11 00:39:37;;;;;;;;;2.50;2.50;;;;;;;;5069767;28;62119;-85
2023/03/11 00:42:03;;;;;;;;;2.75;2.75;;;;;;;;5065239;28;62157;-85
2023/03/11 00:44:28;;;;;;;;;3.00;3.00;;;;;;;;5064505;28;64627;-85
2023/03/11 00:46:53;;;;;;;;;7.25;2.25;;;;;;;;5064324;28;61890;-85
2023/03/11 00:49:18;;;;;;;;;5.00;5.00;;;;;;;;5064323;28;61960;-85
2023/03/11 00:51:44;;;;;;;;;6.00;6.00;;;;;;;;5064353;28;61806;-85
2023/03/11 00:54:09;;;;;;;;;8.00;5.75;;;;;;;;5064104;28;64786;-85
2023/03/11 00:56:34;;;;;;;;;7.50;5.75;;;;;;;;5083038;27;61861;-85
2023/03/11 00:58:59;;;;;;;;;7.50;5.50;;;;;;;;5064648;27;61854;-85
2023/03/11 01:01:25;;;;;;;;;6.00;6.00;;;;;;;;5064854;27;62259;-85
2023/03/11 01:03:50;;;;;;;;;7.75;6.50;;;;;;;;5064450;28;64889;-85
2023/03/11 01:06:15;;;;;;;;;6.00;5.00;;;;;;;;5064096;27;61770;-85
2023/03/11 01:08:41;;;;;;;;;5.50;3.00;;;;;;;;5064458;28;61718;-85
2023/03/11 01:11:06;;;;;;;;;6.25;2.00;;;;;;;;5083123;28;61817;-85
2023/03/11 01:13:31;;;;;;;;;5.00;3.50;;;;;;;;5082097;28;62557;-85
2023/03/11 01:15:57;;;;;;;;;4.50;4.50;;;;;;;;5082814;27;61714;-85
2023/03/11 01:18:22;;;;;;;;;7.00;5.75;;;;;;;;5064848;28;61909;-85
2023/03/11 01:20:48;;;;;;;;;6.25;5.25;;;;;;;;5064340;28;61694;-85
2023/03/11 01:23:14;;;;;;;;;4.50;4.50;;;;;;;;5063710;28;64871;-85
2023/03/11 01:25:39;;;;;;;;;3.50;3.50;;;;;;;;5064018;28;61760;-85
2023/03/11 01:28:07;;;;;;;;;7.00;5.25;;;;;;;;5082897;28;61888;-85
2023/03/11 01:30:33;;;;;;;;;3.00;3.00;;;;;;;;5064491;28;62093;-85
2023/03/11 01:32:58;;;;;;;;;5.00;2.00;;;;;;;;5081863;27;62706;-85
2023/03/11 01:35:24;;;;;;;;;3.50;2.00;;;;;;;;5082285;27;61677;-85
2023/03/11 01:37:50;;;;;;;;;3.00;3.00;;;;;;;;5063995;28;61761;-85
2023/03/11 01:40:23;;;;;;;;;3.00;1.50;;;;;;;;5072637;28;62039;-85
2023/03/11 01:42:48;;;;;;;;;2.50;1.25;;;;;;;;5063468;28;63806;-84
2023/03/11 01:45:38;;;;;;;;;5.50;2.00;;;;;;;;5064298;28;62055;-85
2023/03/11 01:48:03;;;;;;;;;1.50;1.50;;;;;;;;5064278;28;62034;-85
2023/03/11 01:50:31;;;;;;;;;3.00;2.00;;;;;;;;5082114;28;62158;-84
2023/03/11 01:52:56;;;;;;;;;1.00;1.00;;;;;;;;5063277;28;64086;-85
2023/03/11 01:55:22;;;;;;;;;1.00;1.00;;;;;;;;5082395;28;61796;-85
2023/03/11 01:57:48;;;;;;;;;4.50;2.00;;;;;;;;5064179;28;61794;-85
2023/03/11 02:00:16;;;;;;;;;2.00;2.00;;;;;;;;5066571;27;61872;-85
2023/03/11 02:02:47;;;;;;;;;4.00;2.00;;;;;;;;5066781;28;64901;-85
2023/03/11 02:05:12;;;;;;;;;1.00;1.00;;;;;;;;5085489;28;61949;-85
2023/03/11 02:07:39;;;;;;;;;2.50;1.25;;;;;;;;5067638;28;61770;-85
2023/03/11 02:10:06;;;;;;;;;6.00;5.00;;;;;;;;5067846;28;62125;-85
2023/03/11 02:12:33;;;;;;;;;4.00;3.00;;;;;;;;5085374;28;62267;-85
2023/03/11 02:14:59;;;;;;;;;4.75;4.75;;;;;;;;5067291;28;61841;-85
2023/03/11 02:17:25;;;;;;;;;6.00;3.50;;;;;;;;5067676;28;61778;-85
2023/03/11 02:20:06;;;;;;;;;5.75;3.00;;;;;;;;5067256;28;62052;-85
2023/03/11 02:22:32;;;;;;;;;8.25;6.00;;;;;;;;5084957;27;62147;-85
2023/03/11 02:25:12;;;;;;;;;6.00;6.00;;;;;;;;5085328;27;61952;-84
2023/03/11 02:27:40;;;;;;;;;13.25;7.00;;;;;;;;5067230;28;61932;-85
2023/03/11 02:30:06;;;;;;;;;11.00;6.75;;;;;;;;5066742;28;61843;-85
2023/03/11 02:32:31;;;;;;;;;9.25;6.50;;;;;;;;5066369;28;63967;-85
2023/03/11 02:34:57;;;;;;;;;5.75;5.75;;;;;;;;5066696;28;61827;-85
2023/03/11 02:37:22;;;;;;;;;8.00;6.25;;;;;;;;5066558;28;61824;-85
2023/03/11 02:39:51;;;;;;;;;7.00;7.00;;;;;;;;5085310;27;61632;-85
2023/03/11 02:42:20;;;;;;;;;6.75;6.00;;;;;;;;5084530;27;63030;-85
2023/03/11 02:44:54;;;;;;;;;11.00;7.75;;;;;;;;5084974;27;61968;-85
2023/03/11 02:47:19;;;;;;;;;11.75;7.00;;;;;;;;5066882;28;61763;-85
2023/03/11 02:49:44;;;;;;;;;8.00;8.00;;;;;;;;5067035;27;61830;-85
2023/03/11 02:52:11;;;;;;;;;10.00;8.25;;;;;;;;5083631;27;63252;-85
2023/03/11 02:54:37;;;;;;;;;10.50;7.50;;;;;;;;5085284;27;62057;-85
2023/03/11 02:57:02;;;;;;;;;7.75;5.75;;;;;;;;5084971;27;62101;-85
2023/03/11 02:59:27;;;;;;;;;10.50;8.25;;;;;;;;5066650;28;62047;-85
2023/03/11 03:01:53;;;;;;;;;13.50;8.00;;;;;;;;5084193;28;61836;-85
2023/03/11 03:04:18;;;;;;;;;11.00;8.00;;;;;;;;5066284;28;61943;-85
2023/03/11 03:06:43;;;;;;;;;15.25;12.25;;;;;;;;5066443;27;61722;-85
2023/03/11 03:09:08;;;;;;;;;10.25;5.75;;;;;;;;5066722;28;62154;-85
2023/03/11 03:11:34;;;;;;;;;10.00;10.00;;;;;;;;5064409;28;65059;-85
2023/03/11 03:13:59;;;;;;;;;12.00;9.50;;;;;;;;5066408;28;61947;-85
2023/03/11 03:16:24;;;;;;;;;8.50;8.50;;;;;;;;5084718;28;61720;-85
2023/03/11 03:18:51;;;;;;;;;15.00;11.00;;;;;;;;5084768;28;61683;-85
2023/03/11 03:21:16;;;;;;;;;11.00;7.00;;;;;;;;5065399;28;63671;-85
2023/03/11 03:23:41;;;;;;;;;9.75;7.25;;;;;;;;5066069;28;61907;-85
2023/03/11 03:26:07;;;;;;;;;5.00;5.00;;;;;;;;5084317;27;61758;-85
2023/03/11 03:28:32;;;;;;;;;6.00;6.00;;;;;;;;5084647;27;61650;-85
2023/03/11 03:31:04;;;;;;;;;10.00;5.00;;;;;;;;5065389;28;64807;-85
2023/03/11 03:33:30;;;;;;;;;6.00;2.50;;;;;;;;5065474;28;61973;-85
2023/03/11 03:35:55;;;;;;;;;5.75;5.00;;;;;;;;5065757;28;61858;-85
2023/03/11 03:38:21;;;;;;;;;5.00;3.00;;;;;;;;5066292;28;61766;-85
2023/03/11 03:40:46;;;;;;;;;6.50;3.00;;;;;;;;5083450;27;61939;-85
2023/03/11 03:43:12;;;;;;;;;3.50;3.00;;;;;;;;5065811;28;61940;-85
2023/03/11 03:45:37;;;;;;;;;5.75;5.00;;;;;;;;5065940;28;61858;-85
2023/03/11 03:48:03;;;;;;;;;9.50;5.75;;;;;;;;5065696;28;62305;-85
2023/03/11 03:50:28;;;;;;;;;6.50;3.00;;;;;;;;5065164;28;63650;-85
2023/03/11 03:52:53;;;;;;;;;8.00;5.75;;;;;;;;5065641;28;61984;-84
2023/03/11 03:55:18;;;;;;;;;6.00;5.75;;;;;;;;5083962;27;61862;-85
2023/03/11 03:57:44;;;;;;;;;7.75;6.00;;;;;;;;5065808;28;61870;-85
2023/03/11 04:00:09;;;;;;;;;11.75;7.75;;;;;;;;5064867;27;65070;-84
2023/03/11 04:02:35;;;;;;;;;7.25;6.00;;;;;;;;5083806;28;61870;-85
2023/03/11 04:05:00;;;;;;;;;6.75;6.50;;;;;;;;5084225;28;61980;-85
2023/03/11 04:07:25;;;;;;;;;11.50;10.00;;;;;;;;5065358;27;61890;-85
2023/03/11 04:09:50;;;;;;;;;11.25;8.25;;;;;;;;5065322;28;63972;-85
2023/03/11 04:12:18;;;;;;;;;10.00;7.25;;;;;;;;5083580;27;61710;-85
2023/03/11 04:14:44;;;;;;;;;11.50;8.75;;;;;;;;5065708;28;61897;-85
2023/03/11 04:17:13;;;;;;;;;8.25;7.00;;;;;;;;5065601;28;61755;-85
2023/03/11 04:19:38;;;;;;;;;8.50;7.25;;;;;;;;5083281;28;62339;-85
2023/03/11 04:22:04;;;;;;;;;18.50;12.75;;;;;;;;5064847;28;61842;-85
2023/03/11 04:24:29;;;;;;;;;5.75;5.00;;;;;;;;5065405;28;61839;-85
2023/03/11 04:26:54;;;;;;;;;6.00;6.00;;;;;;;;5065592;27;61819;-85
2023/03/11 04:29:19;;;;;;;;;8.25;6.25;;;;;;;;5064360;28;63671;-85
2023/03/11 04:31:45;;;;;;;;;6.25;6.25;;;;;;;;5083283;27;62074;-85
2023/03/11 04:34:10;;;;;;;;;11.50;8.50;;;;;;;;5083497;27;62027;-85
2023/03/11 04:36:35;;;;;;;;;6.25;6.25;;;;;;;;5065183;28;62739;-85
2023/03/11 04:39:01;;;;;;;;;9.25;9.25;;;;;;;;5064770;28;63486;-85
2023/03/11 04:41:26;;;;;;;;;8.25;7.00;;;;;;;;5083055;27;62028;-85
2023/03/11 04:43:51;;;;;;;;;3.75;3.00;;;;;;;;5083492;27;61829;-85
2023/03/11 04:46:16;;;;;;;;;9.50;4.00;;;;;;;;5083107;27;62048;-85
2023/03/11 04:48:42;;;;;;;;;5.00;3.00;;;;;;;;5064411;28;64802;-84
2023/03/11 04:51:07;;;;;;;;;3.00;2.25;;;;;;;;5064970;28;62151;-85
2023/03/11 04:53:33;;;;;;;;;7.00;6.00;;;;;;;;5083251;27;61873;-85
2023/03/11 04:55:58;;;;;;;;;3.00;3.00;;;;;;;;5065620;28;61908;-85
2023/03/11 04:58:24;;;;;;;;;6.75;5.50;;;;;;;;5064182;28;65027;-85
2023/03/11 05:00:50;;;;;;;;;2.00;2.00;;;;;;;;5082707;28;61822;-85
2023/03/11 05:03:15;;;;;;;;;3.00;3.00;;;;;;;;5065058;28;61860;-85
2023/03/11 05:05:41;;;;;;;;;4.00;4.00;;;;;;;;5064662;28;61809;-85
2023/03/11 05:08:06;;;;;;;;;3.00;3.00;;;;;;;;5064190;28;65097;-85
2023/03/11 05:10:32;;;;;;;;;8.25;4.50;;;;;;;;5064355;28;62114;-85
2023/03/11 05:12:57;;;;;;;;;3.00;3.00;;;;;;;;5064816;28;61863;-85
2023/03/11 05:15:22;;;;;;;;;4.50;3.00;;;;;;;;5064725;28;61968;-84
2023/03/11 05:17:48;;;;;;;;;2.50;2.50;;;;;;;;5064175;28;64664;-84
2023/03/11 05:20:13;;;;;;;;;6.00;6.00;;;;;;;;5064628;28;61762;-84
2023/03/11 05:22:38;;;;;;;;;6.25;5.00;;;;;;;;5082344;27;61869;-84
2023/03/11 05:25:04;;;;;;;;;4.50;3.00;;;;;;;;5064852;28;61910;-84
2023/03/11 05:27:30;;;;;;;;;2.75;2.75;;;;;;;;5063800;28;65005;-84
2023/03/11 05:29:55;;;;;;;;;6.75;3.00;;;;;;;;5082394;27;61944;-84
2023/03/11 05:32:20;;;;;;;;;6.00;2.50;;;;;;;;5082584;27;61842;-85
2023/03/11 05:34:46;;;;;;;;;2.00;2.00;;;;;;;;5082001;27;61851;-85
2023/03/11 05:37:11;;;;;;;;;2.50;2.50;;;;;;;;5063570;28;63385;-85
2023/03/11 05:39:36;;;;;;;;;1.50;1.00;;;;;;;;5082114;27;61997;-84
2023/03/11 05:42:02;;;;;;;;;2.00;2.00;;;;;;;;5064281;28;62123;-85
2023/03/11 05:44:28;;;;;;;;;6.00;2.00;;;;;;;;5082507;28;61878;-85
2023/03/11 05:46:53;;;;;;;;;1.50;1.50;;;;;;;;5082016;28;61774;-84
2023/03/11 05:49:20;;;;;;;;;3.00;1.75;;;;;;;;5064162;28;61968;-85
2023/03/11 05:51:45;;;;;;;;;4.25;2.25;;;;;;;;5063737;28;61710;-84
2023/03/11 05:54:13;;;;;;;;;3.50;1.00;;;;;;;;5064587;28;61723;-85
2023/03/11 05:56:39;;;;;;;;;3.00;3.00;;;;;;;;5063389;27;64201;-85
2023/03/11 05:59:04;;;;;;;;;1.00;1.00;;;;;;;;5082014;28;61877;-85
2023/03/11 06:01:30;;;;;;;;;2.50;2.50;;;;;;;;5082276;27;61916;-85
2023/03/11 06:03:55;;;;;;;;;5.00;2.00;;;;;;;;5064114;28;62243;-85
2023/03/11 06:06:20;;;;;;;;;3.00;2.00;;;;;;;;5081510;28;61949;-84
2023/03/11 06:08:48;;;;;;;;;7.00;5.00;;;;;;;;5063491;28;61933;-85
2023/03/11 06:11:14;;;;;;;;;3.00;2.00;;;;;;;;5063816;28;61865;-85
2023/03/11 06:13:39;;;;;;;;;4.00;2.50;;;;;;;;5063452;28;61965;-84
2023/03/11 06:16:05;;;;;;;;;2.00;2.00;;;;;;;;5063231;28;65241;-84
2023/03/11 06:18:32;;;;;;;;;2.00;2.00;;;;;;;;5063893;28;61754;-86
2023/03/11 06:20:59;;;;;;;;;4.75;2.00;;;;;;;;5063902;28;61902;-83
2023/03/11 06:23:25;;;;;;;;;3.25;2.00;;;;;;;;5063544;28;61810;-83
2023/03/11 06:26:00;;;;;;;;;2.75;2.75;;;;;;;;5062562;28;63892;-82
2023/03/11 06:28:26;;;;;;;;;1.50;1.25;;;;;;;;5063636;28;61887;-83
2023/03/11 06:30:52;;;;;;;;;3.00;1.75;;;;;;;;5063128;27;61849;-83
2023/03/11 06:33:17;;;;;;;;;2.75;2.75;;;;;;;;5063600;28;61801;-82
2023/03/11 06:35:42;;;;;;;;;2.75;2.00;;;;;;;;5080645;28;62586;-83
2023/03/11 06:38:08;;;;;;;;;3.25;3.25;;;;;;;;5063850;28;62019;-83
2023/03/11 06:40:33;;;;;;;;;2.75;2.75;;;;;;;;5071787;27;61773;-81
2023/03/11 06:42:58;;;;;;;;;3.00;3.00;;;;;;;;5063662;27;61737;-81
2023/03/11 06:45:24;;;;;;;;;3.50;3.00;;;;;;;;5063762;27;63371;-82
2023/03/11 06:47:49;;;;;;;;;2.00;2.00;;;;;;;;5065834;28;61790;-81
2023/03/11 06:50:15;;;;;;;;;5.00;5.00;;;;;;;;5066006;28;61849;-82
2023/03/11 06:52:40;;;;;;;;;4.50;2.75;;;;;;;;5084075;27;61937;-81
2023/03/11 06:55:05;;;;;;;;;4.75;1.75;;;;;;;;5083733;28;61753;-81
2023/03/11 06:57:32;;;;;;;;;5.50;2.25;;;;;;;;5084130;28;61744;-81
2023/03/11 06:59:57;;;;;;;;;5.00;5.00;;;;;;;;5083985;27;62163;-82
2023/03/11 07:02:22;;;;;;;;;28.25;24.25;;;;;;;;5066785;28;62473;-82
2023/03/11 07:04:48;;;;;;;;;5.00;2.00;;;;;;;;5083998;27;61880;-82
2023/03/11 07:07:13;;;;;;;;;5.75;4.00;;;;;;;;5084517;28;61866;-82
2023/03/11 07:09:39;;;;;;;;;6.00;5.00;;;;;;;;5084529;28;61706;-82
2023/03/11 07:12:04;;;;;;;;;7.25;5.50;;;;;;;;5066265;28;61865;-82
2023/03/11 07:14:29;;;;;;;;;5.25;5.25;;;;;;;;5084379;27;62363;-82
2023/03/11 07:16:54;;;;;;;;;5.75;2.75;;;;;;;;5066160;27;61933;-81
2023/03/11 07:19:20;;;;;;;;;2.00;2.00;;;;;;;;5085069;28;62002;-80
2023/03/11 07:21:45;;;;;;;;;5.50;4.00;;;;;;;;5066616;28;62070;-82
2023/03/11 07:24:11;;;;;;;;;2.50;2.50;;;;;;;;5083824;27;62589;-80
2023/03/11 07:26:37;;;;;;;;;4.75;3.50;;;;;;;;5066662;28;61811;-80
2023/03/11 07:29:02;;;;;;;;;10.50;5.00;;;;;;;;5065908;28;61797;-81
2023/03/11 07:31:28;;;;;;;;;5.75;3.50;;;;;;;;5066214;28;61955;-81
2023/03/11 07:33:56;;;;;;;;;10.25;5.00;;;;;;;;5065261;28;63700;-81
2023/03/11 07:36:22;;;;;;;;;5.50;5.50;;;;;;;;5066161;28;61909;-81
2023/03/11 07:38:48;;;;;;;;;7.50;3.50;;;;;;;;5084007;28;61827;-81
2023/03/11 07:41:15;;;;;;;;;6.00;6.00;;;;;;;;5083607;27;61798;-81
2023/03/11 07:43:41;;;;;;;;;3.50;3.50;;;;;;;;5083559;28;62100;-81
2023/03/11 07:46:21;;;;;;;;;6.50;6.50;;;;;;;;5085681;27;61784;-83
2023/03/11 07:48:47;;;;;;;;;4.50;4.50;;;;;;;;5066049;27;61949;-80
2023/03/11 07:51:15;;;;;;;;;4.75;3.00;;;;;;;;5066023;28;61898;-79
2023/03/11 07:53:40;;;;;;;;;7.00;3.00;;;;;;;;5083459;28;62163;-79
2023/03/11 07:56:06;;;;;;;;;6.75;5.00;;;;;;;;5077868;27;62078;-79
2023/03/11 07:58:32;;;;;;;;;5.50;2.50;;;;;;;;5049619;28;62016;-79
2023/03/11 08:01:05;;;;;;;;;1.25;1.25;;;;;;;;5080649;27;61892;-80
2023/03/11 08:03:33;;;;;;;;;6.25;1.75;;;;;;;;5054048;28;64019;-79
2023/03/11 08:05:59;;;;;;;;;4.25;2.00;;;;;;;;5052720;28;62121;-80
2023/03/11 08:08:24;;;;;;;;;7.50;2.75;;;;;;;;5065552;28;61859;-80
2023/03/11 08:10:49;;;;;;;;;6.00;3.00;;;;;;;;5065847;27;62139;-80
2023/03/11 08:13:14;;;;;;;;;5.00;3.00;;;;;;;;5082974;27;61894;-83
2023/03/11 08:15:40;;;;;;;;;5.75;1.00;;;;;;;;5082449;28;62086;-82
2023/03/11 08:18:05;;;;;;;;;2.00;2.00;;;;;;;;5055033;27;61743;-82
2023/03/11 08:20:31;;;;;;;;;5.00;3.00;;;;;;;;5073000;27;61780;-82
2023/03/11 08:22:56;;;;;;;;;3.00;1.25;;;;;;;;5073187;27;61909;-82
2023/03/11 08:25:21;;;;;;;;;1.00;1.00;;;;;;;;5054007;28;61897;-82
2023/03/11 08:27:47;;;;;;;;;5.50;3.25;;;;;;;;5067725;28;61829;-83
2023/03/11 08:30:13;;;;;;;;;2.75;2.00;;;;;;;;5045341;28;62138;-82
2023/03/11 08:32:38;;;;;;;;;6.25;4.75;;;;;;;;5044457;28;63952;-82
2023/03/11 08:35:03;;;;;;;;;6.25;4.75;;;;;;;;5045490;28;62210;-82
2023/03/11 08:37:30;;;;;;;;;5.75;4.75;;;;;;;;5062912;28;61880;-82
2023/03/11 08:39:55;;;;;;;;;2.75;2.00;;;;;;;;5074404;28;61798;-82
2023/03/11 08:42:20;;;;;;;;;1.75;1.75;;;;;;;;5064275;27;64976;-82
2023/03/11 08:44:46;;;;;;;;;4.50;3.00;;;;;;;;5065140;28;62095;-82
2023/03/11 08:47:11;;;;;;;;;3.50;2.50;;;;;;;;5083371;28;61909;-82
2023/03/11 08:49:36;;;;;;;;;2.75;2.00;;;;;;;;5065041;28;61836;-82
2023/03/11 08:52:02;;;;;;;;;3.00;2.25;;;;;;;;5077905;28;61809;-82
2023/03/11 08:54:29;;;;;;;;;5.00;2.75;;;;;;;;5044625;28;61941;-81
2023/03/11 08:56:55;;;;;;;;;2.25;2.25;;;;;;;;5063140;28;61727;-81
2023/03/11 08:59:20;;;;;;;;;6.75;4.75;;;;;;;;5046515;28;62028;-82
2023/03/11 09:01:45;;;;;;;;;3.50;1.50;;;;;;;;5081055;28;62231;-84
2023/03/11 09:04:11;;;;;;;;;6.50;6.00;;;;;;;;5063187;28;61933;-81
2023/03/11 09:06:40;;;;;;;;;4.75;2.50;;;;;;;;5081482;28;61967;-81
2023/03/11 09:09:05;;;;;;;;;3.00;3.00;;;;;;;;5081506;27;62028;-82
2023/03/11 09:11:31;;;;;;;;;3.50;3.00;;;;;;;;5064026;28;64376;-80
2023/03/11 09:13:56;;;;;;;;;6.00;4.00;;;;;;;;5082734;27;61833;-81
2023/03/11 09:16:22;;;;;;;;;6.75;3.00;;;;;;;;5082258;27;61910;-81
2023/03/11 09:18:48;;;;;;;;;7.00;3.50;;;;;;;;5081519;27;61967;-82
2023/03/11 09:21:14;;;;;;;;;3.75;3.75;;;;;;;;5062457;28;63605;-82
2023/03/11 09:23:39;;;;;;;;;2.75;2.75;;;;;;;;5055045;28;61955;-84
2023/03/11 09:26:05;;;;;;;;;4.00;2.25;;;;;;;;5080126;28;61895;-84
2023/03/11 09:28:30;;;;;;;;;4.00;3.00;;;;;;;;5083075;28;61938;-85
2023/03/11 09:30:55;;;;;;;;;2.25;2.25;;;;;;;;5082223;28;61749;-84
2023/03/11 09:33:21;;;;;;;;;10.00;8.00;;;;;;;;5082337;28;61711;-84
2023/03/11 09:35:46;;;;;;;;;3.50;3.50;;;;;;;;5064152;28;61726;-84
2023/03/11 09:38:11;;;;;;;;;7.50;6.50;;;;;;;;5064793;28;61864;-84
2023/03/11 09:40:49;;;;;;;;;9.00;8.00;;;;;;;;5063155;28;65007;-84
2023/03/11 09:43:14;;;;;;;;;9.50;7.25;;;;;;;;5082508;27;61863;-84
2023/03/11 09:45:45;;;;;;;;;8.00;8.00;;;;;;;;5082230;27;61746;-85
2023/03/11 09:48:21;;;;;;;;;7.75;7.00;;;;;;;;5064640;28;62123;-84
2023/03/11 09:50:52;;;;;;;;;4.75;4.00;;;;;;;;5081129;28;62149;-84
2023/03/11 09:53:41;;;;;;;;;11.25;8.75;;;;;;;;5063776;28;61785;-84
2023/03/11 09:56:08;;;;;;;;;8.75;6.00;;;;;;;;5063845;28;62175;-85
2023/03/11 09:58:41;;;;;;;;;12.50;9.00;;;;;;;;5081826;27;61879;-84
2023/03/11 10:01:19;;;;;;;;;7.50;6.00;;;;;;;;5063547;28;64774;-84
2023/03/11 10:03:44;;;;;;;;;7.50;6.00;;;;;;;;5063097;28;61922;-84
2023/03/11 10:06:18;;;;;;;;;7.75;6.00;;;;;;;;5081434;28;62133;-84
2023/03/11 10:08:49;;;;;;;;;3.00;2.00;;;;;;;;5063566;28;62559;-84
2023/03/11 10:11:15;;;;;;;;;4.00;4.00;;;;;;;;5081318;28;61754;-83
2023/03/11 10:13:45;;;;;;;;;6.00;3.75;;;;;;;;5054666;28;61872;-83
2023/03/11 10:16:10;;;;;;;;;10.75;10.75;;;;;;;;5070145;28;61838;-83
2023/03/11 10:18:38;;;;;;;;;9.50;7.00;;;;;;;;5070216;28;61861;-84
2023/03/11 10:21:27;;;;;;;;;4.75;3.50;;;;;;;;5081320;27;63571;-84
2023/03/11 10:23:55;;;;;;;;;8.50;3.50;;;;;;;;5084665;28;61864;-84
2023/03/11 10:26:20;;;;;;;;;3.25;3.00;;;;;;;;5076838;27;62007;-82
2023/03/11 10:28:49;;;;;;;;;4.00;3.00;;;;;;;;5061571;28;62429;-82
2023/03/11 10:31:25;;;;;;;;;4.00;3.00;;;;;;;;5076492;28;62837;-84
2023/03/11 10:33:53;;;;;;;;;5.50;4.00;;;;;;;;5051174;28;61989;-83
2023/03/11 10:36:23;;;;;;;;;2.00;2.00;;;;;;;;5085223;27;62121;-83
2023/03/11 10:38:50;;;;;;;;;6.25;4.50;;;;;;;;5066856;28;61972;-83
2023/03/11 10:41:21;;;;;;;;;1.50;1.00;;;;;;;;5084567;28;62688;-83
2023/03/11 10:43:53;;;;;;;;;4.00;3.00;;;;;;;;5085083;28;61959;-83
2023/03/11 10:46:22;;;;;;;;;6.25;5.50;;;;;;;;5085469;27;61841;-87
2023/03/11 10:48:47;;;;;;;;;3.50;3.50;;;;;;;;5084951;27;61843;-84
2023/03/11 10:51:21;;;;;;;;;3.00;3.00;;;;;;;;5065752;28;63598;-85
2023/03/11 10:53:48;;;;;;;;;8.25;4.25;;;;;;;;5065322;28;61809;-84
2023/03/11 10:56:33;;;;;;;;;5.25;3.00;;;;;;;;5083684;27;61884;-80
2023/03/11 10:58:59;;;;;;;;;7.25;4.25;;;;;;;;5082182;27;62140;-89
2023/03/11 11:01:25;;;;;;;;;3.00;2.00;;;;;;;;5064302;27;63727;-88
2023/03/11 11:03:54;;;;;;;;;4.25;3.50;;;;;;;;5084974;28;61854;-83
2023/03/11 11:06:33;;;;;;;;;3.75;3.75;;;;;;;;5066979;28;62080;-82
2023/03/11 11:09:05;;;;;;;;;8.00;5.25;;;;;;;;5066917;28;61928;-86
2023/03/11 11:11:31;;;;;;;;;5.00;3.50;;;;;;;;5083978;27;61999;-84
2023/03/11 11:13:58;;;;;;;;;55.00;42.25;;;;;;;;5084865;28;61933;-82
2023/03/11 11:16:23;;;;;;;;;4.00;3.00;;;;;;;;5084815;27;61727;-81
2023/03/11 11:19:09;;;;;;;;;5.75;4.00;;;;;;;;5084685;27;62074;-81
2023/03/11 11:21:48;;;;;;;;;4.25;4.00;;;;;;;;5064989;28;64738;-81
2023/03/11 11:24:22;;;;;;;;;4.25;4.25;;;;;;;;5066792;27;62270;-84
2023/03/11 11:27:03;;;;;;;;;15.75;10.25;;;;;;;;5065362;28;62189;-84
2023/03/11 11:29:28;;;;;;;;;6.00;4.50;;;;;;;;5055758;28;61862;-82
2023/03/11 11:32:08;;;;;;;;;3.00;1.75;;;;;;;;5051637;28;63563;-85
2023/03/11 11:34:34;;;;;;;;;4.00;3.00;;;;;;;;5080154;27;61843;-85
2023/03/11 11:37:00;;;;;;;;;8.00;4.00;;;;;;;;5060200;28;61824;-83
2023/03/11 11:39:41;;;;;;;;;5.00;5.00;;;;;;;;5060851;27;62456;-84
2023/03/11 11:42:09;;;;;;;;;3.00;3.00;;;;;;;;5058167;28;63604;-85
2023/03/11 11:44:34;;;;;;;;;3.00;3.00;;;;;;;;5059105;28;62127;-84
2023/03/11 11:47:02;;;;;;;;;4.50;4.50;;;;;;;;5069625;28;61864;-84
2023/03/11 11:49:30;;;;;;;;;6.00;4.50;;;;;;;;5062913;28;62108;-84
2023/03/11 11:52:13;;;;;;;;;5.75;3.00;;;;;;;;5054130;28;63683;-87
2023/03/11 11:54:42;;;;;;;;;4.50;4.00;;;;;;;;5058107;28;61867;-85
2023/03/11 11:57:18;;;;;;;;;3.75;3.75;;;;;;;;5058882;28;61838;-85
2023/03/11 11:59:43;;;;;;;;;3.50;2.75;;;;;;;;5061786;28;62177;-85
2023/03/11 12:02:15;;;;;;;;;6.00;3.75;;;;;;;;5062922;28;65320;-84
2023/03/11 12:04:59;;;;;;;;;5.00;4.00;;;;;;;;5081384;28;62372;-84
2023/03/11 12:07:34;;;;;;;;;4.50;3.25;;;;;;;;5071155;28;61977;-86
2023/03/11 12:10:18;;;;;;;;;3.00;3.00;;;;;;;;5074123;28;61898;-87
2023/03/11 12:13:04;;;;;;;;;4.50;2.75;;;;;;;;5078226;28;64263;-86
2023/03/11 12:15:48;;;;;;;;;2.75;2.00;;;;;;;;5072388;28;61783;-86
2023/03/11 12:18:35;;;;;;;;;4.50;4.50;;;;;;;;5082935;28;62012;-86
2023/03/11 12:21:03;;;;;;;;;6.50;3.00;;;;;;;;5082334;28;61920;-84
2023/03/11 12:23:34;;;;;;;;;3.75;3.75;;;;;;;;5079803;28;62322;-83
2023/03/11 12:26:15;;;;;;;;;5.00;3.75;;;;;;;;5080589;28;62042;-83
2023/03/11 12:28:54;;;;;;;;;5.25;3.75;;;;;;;;5070644;28;61782;-83
2023/03/11 12:31:20;;;;;;;;;3.25;3.25;;;;;;;;5070582;28;61829;-83
2023/03/11 12:33:50;;;;;;;;;2.75;2.75;;;;;;;;5084964;27;62051;-85
2023/03/11 12:36:28;;;;;;;;;8.00;4.00;;;;;;;;5076652;28;61836;-85
2023/03/11 12:38:54;;;;;;;;;3.75;3.75;;;;;;;;5072425;28;61819;-82
2023/03/11 12:41:27;;;;;;;;;7.00;5.75;;;;;;;;5071574;27;61923;-86
2023/03/11 12:43:58;;;;;;;;;6.75;6.75;;;;;;;;5069496;28;63322;-84
2023/03/11 12:46:43;;;;;;;;;5.50;5.50;;;;;;;;5061551;28;62226;-85
2023/03/11 12:49:12;;;;;;;;;4.25;4.25;;;;;;;;5077965;27;61945;-85
2023/03/11 12:51:38;;;;;;;;;2.75;2.75;;;;;;;;5069876;27;62261;-85
2023/03/11 12:54:20;;;;;;;;;5.00;5.00;;;;;;;;5064988;28;63233;-85
2023/03/11 12:56:54;;;;;;;;;3.50;3.50;;;;;;;;5071788;27;62009;-85
2023/03/11 12:59:38;;;;;;;;;2.00;1.25;;;;;;;;5073825;28;61877;-85
2023/03/11 13:02:09;;;;;;;;;6.75;5.25;;;;;;;;5083693;28;61888;-85
2023/03/11 13:04:37;;;;;;;;;8.00;4.00;;;;;;;;5082020;28;61876;-86
2023/03/11 13:07:20;;;;;;;;;8.00;3.00;;;;;;;;5069514;28;61921;-84
2023/03/11 13:09:58;;;;;;;;;8.75;7.00;;;;;;;;5072609;28;62020;-83
2023/03/11 13:12:42;;;;;;;;;6.75;3.75;;;;;;;;5071202;28;62240;-83
2023/03/11 13:15:19;;;;;;;;;4.00;4.00;;;;;;;;5080333;28;62014;-82
2023/03/11 13:18:02;;;;;;;;;3.00;2.00;;;;;;;;5081927;27;61928;-82
2023/03/11 13:20:42;;;;;;;;;5.50;3.00;;;;;;;;5072560;28;61803;-83
2023/03/11 13:23:11;;;;;;;;;3.00;3.00;;;;;;;;5070660;28;62106;-82
2023/03/11 13:25:40;;;;;;;;;6.25;2.00;;;;;;;;5080545;28;62121;-82
2023/03/11 13:28:15;;;;;;;;;9.00;6.75;;;;;;;;5081221;27;62164;-82
2023/03/11 13:30:43;;;;;;;;;5.75;3.75;;;;;;;;5079504;28;61786;-82
2023/03/11 13:33:26;;;;;;;;;4.25;3.50;;;;;;;;5067358;28;62124;-82
2023/03/11 13:36:15;;;;;;;;;5.50;4.50;;;;;;;;5070328;28;64104;-82
2023/03/11 13:38:40;;;;;;;;;3.75;3.00;;;;;;;;5017409;28;62251;-82
2023/03/11 13:41:37;;;;;;;;;2.00;2.00;;;;;;;;5028701;28;62096;-83
2023/03/11 13:44:11;;;;;;;;;4.50;3.75;;;;;;;;4957847;28;62017;-82
2023/03/11 13:46:38;;;;;;;;;5.50;4.75;;;;;;;;4956448;28;64227;-82
2023/03/11 13:49:22;;;;;;;;;3.75;3.75;;;;;;;;4959633;28;62044;-83
2023/03/11 13:51:49;;;;;;;;;5.25;3.00;;;;;;;;4960407;28;61754;-83
2023/03/11 13:54:24;;;;;;;;;3.50;3.00;;;;;;;;4960548;28;61893;-82
2023/03/11 13:56:52;;;;;;;;;6.25;4.00;;;;;;;;4962941;28;62113;-82
2023/03/11 13:59:21;;;;;;;;;3.00;3.00;;;;;;;;4947513;28;62025;-82
2023/03/11 14:01:47;;;;;;;;;10.25;8.75;;;;;;;;4964065;28;62086;-82
2023/03/11 14:04:14;;;;;;;;;10.00;9.75;;;;;;;;4963119;28;61854;-82
2023/03/11 14:06:40;;;;;;;;;12.75;8.00;;;;;;;;4946192;28;63824;-82
2023/03/11 14:09:17;;;;;;;;;5.00;5.00;;;;;;;;4963016;28;62286;-82
2023/03/11 14:11:46;;;;;;;;;5.75;5.75;;;;;;;;4947267;28;62107;-82
2023/03/11 14:14:31;;;;;;;;;5.50;4.50;;;;;;;;4963967;28;62189;-82
2023/03/11 14:16:57;;;;;;;;;10.75;6.00;;;;;;;;5002571;28;65069;-82
2023/03/11 14:19:22;;;;;;;;;6.75;5.50;;;;;;;;5026871;28;61823;-82
2023/03/11 14:21:52;;;;;;;;;6.00;6.00;;;;;;;;5065196;28;61707;-82
2023/03/11 14:24:30;;;;;;;;;6.00;5.25;;;;;;;;5047359;28;61790;-82
2023/03/11 14:26:57;;;;;;;;;6.50;4.75;;;;;;;;5046707;28;64826;-82
2023/03/11 14:29:31;;;;;;;;;3.50;3.50;;;;;;;;5046792;28;61820;-82
2023/03/11 14:31:56;;;;;;;;;8.75;6.00;;;;;;;;5047143;28;61740;-82
2023/03/11 14:34:26;;;;;;;;;8.00;5.50;;;;;;;;5065440;28;62184;-82
2023/03/11 14:36:54;;;;;;;;;4.50;3.50;;;;;;;;5045918;28;64122;-82
2023/03/11 14:39:29;;;;;;;;;3.75;3.25;;;;;;;;5070657;28;61846;-82
2023/03/11 14:41:58;;;;;;;;;4.75;3.75;;;;;;;;5047032;28;61753;-82
2023/03/11 14:44:24;;;;;;;;;4.50;4.50;;;;;;;;5065254;28;61760;-82
2023/03/11 14:46:51;;;;;;;;;5.00;4.75;;;;;;;;5046168;28;64918;-82